createdAt,value
2019-04-28T00:03:46.171Z,9.87
2019-04-28T00:06:24.328Z,9.86
2019-04-28T00:08:52.958Z,9.89
2019-04-28T00:11:27.582Z,9.76
2019-04-28T00:13:56.483Z,9.77
2019-04-28T00:16:25.250Z,9.71
2019-04-28T00:18:55.471Z,9.76
2019-04-28T00:21:28.447Z,9.50
2019-04-28T00:24:11.468Z,9.48
2019-04-28T00:26:45.366Z,9.58
2019-04-28T00:29:23.302Z,9.55
2019-04-28T00:31:52.214Z,9.50
2019-04-28T00:34:31.296Z,9.48
2019-04-28T00:37:01.477Z,9.53
2019-04-28T00:39:35.484Z,9.48
2019-04-28T00:42:07.667Z,9.46
2019-04-28T00:44:36.382Z,9.61
2019-04-28T00:47:10.887Z,9.46
2019-04-28T00:49:51.917Z,9.52
2019-04-28T00:52:22.183Z,9.46
2019-04-28T00:54:52.548Z,9.43
2019-04-28T00:57:21.852Z,9.49
2019-04-28T00:59:58.491Z,9.48
2019-04-28T01:02:41.117Z,9.50
2019-04-28T01:05:25.381Z,9.34
2019-04-28T01:07:54.164Z,9.48
2019-04-28T01:10:23.882Z,9.33
2019-04-28T01:12:52.542Z,9.41
2019-04-28T01:15:29.821Z,9.31
2019-04-28T01:18:04.502Z,9.41
2019-04-28T01:20:32.974Z,9.29
2019-04-28T01:23:10.323Z,9.22
2019-04-28T01:25:43.424Z,9.17
2019-04-28T01:28:14.844Z,9.17
2019-04-28T01:30:49.935Z,9.21
2019-04-28T01:33:23.217Z,9.22
2019-04-28T01:35:51.672Z,9.14
2019-04-28T01:38:20.548Z,9.03
2019-04-28T01:40:50.030Z,9.06
2019-04-28T01:43:19.618Z,9.16
2019-04-28T01:45:50.091Z,9.17
2019-04-28T01:48:19.863Z,8.97
2019-04-28T01:51:19.097Z,9.10
2019-04-28T01:56:42.412Z,9.17
2019-04-28T01:59:11.129Z,9.03
2019-04-28T02:01:40.050Z,9.11
2019-04-28T02:04:11.868Z,9.07
2019-04-28T02:06:42.121Z,8.97
2019-04-28T02:09:11.067Z,8.67
2019-04-28T02:11:41.238Z,8.94
2019-04-28T02:14:10.018Z,8.95
2019-04-28T02:16:40.421Z,8.94
2019-04-28T02:19:10.619Z,8.78
2019-04-28T02:21:41.074Z,8.82
2019-04-28T02:24:37.487Z,8.80
2019-04-28T02:27:06.426Z,8.74
2019-04-28T02:29:35.271Z,8.74
2019-04-28T02:32:04.186Z,8.77
2019-04-28T02:34:32.872Z,8.67
2019-04-28T02:37:02.032Z,8.72
2019-04-28T02:39:31.522Z,8.68
2019-04-28T02:42:01.330Z,8.53
2019-04-28T02:44:34.078Z,8.59
2019-04-28T02:47:01.185Z,8.42
2019-04-28T02:49:34.074Z,8.41
2019-04-28T02:52:04.172Z,8.26
2019-04-28T02:54:32.822Z,7.99
2019-04-28T02:57:23.420Z,8.00
2019-04-28T02:59:51.982Z,7.91
2019-04-28T03:02:21.020Z,8.24
2019-04-28T03:04:50.582Z,8.19
2019-04-28T03:07:25.867Z,8.13
2019-04-28T03:09:54.536Z,8.36
2019-04-28T03:12:23.058Z,8.39
2019-04-28T03:14:51.570Z,8.62
2019-04-28T03:17:23.243Z,8.75
2019-04-28T03:19:51.968Z,8.77
2019-04-28T03:22:20.990Z,8.78
2019-04-28T03:24:51.555Z,8.73
2019-04-28T03:30:03.603Z,8.68
2019-04-28T03:32:45.296Z,8.75
2019-04-28T03:35:14.763Z,8.74
2019-04-28T03:37:43.441Z,8.67
2019-04-28T03:40:12.079Z,8.72
2019-04-28T03:42:41.194Z,8.70
2019-04-28T03:45:11.905Z,8.60
2019-04-28T03:47:40.935Z,8.56
2019-04-28T03:50:10.626Z,8.68
2019-04-28T03:52:41.440Z,8.51
2019-04-28T03:55:11.713Z,8.63
2019-04-28T03:57:41.217Z,8.63
2019-04-28T04:00:11.175Z,8.44
2019-04-28T04:02:56.160Z,8.63
2019-04-28T04:05:26.329Z,8.74
2019-04-28T04:07:54.801Z,8.68
2019-04-28T04:10:30.664Z,8.81
2019-04-28T04:13:01.070Z,8.84
2019-04-28T04:16:01.641Z,8.83
2019-04-28T04:31:34.685Z,8.81
2019-04-28T04:34:11.111Z,8.72
2019-04-28T04:36:41.625Z,8.38
2019-04-28T04:39:10.830Z,8.60
2019-04-28T04:41:40.882Z,8.71
2019-04-28T04:44:11.182Z,8.51
2019-04-28T04:46:41.417Z,8.52
2019-04-28T04:49:10.852Z,8.71
2019-04-28T04:51:43.361Z,8.48
2019-04-28T04:54:10.842Z,8.54
2019-04-28T04:56:40.175Z,8.50
2019-04-28T04:59:10.814Z,8.20
2019-04-28T05:02:01.723Z,8.20
2019-04-28T05:04:29.902Z,8.19
2019-04-28T05:06:59.705Z,8.28
2019-04-28T05:09:29.552Z,8.38
2019-04-28T05:12:02.197Z,8.18
2019-04-28T05:14:30.608Z,8.44
2019-04-28T05:17:00.826Z,8.31
2019-04-28T05:19:29.859Z,8.29
2019-04-28T05:22:00.063Z,8.34
2019-04-28T05:24:53.004Z,8.43
2019-04-28T05:27:22.154Z,8.52
2019-04-28T05:29:51.199Z,8.59
2019-04-28T05:32:20.537Z,8.47
2019-04-28T05:34:52.640Z,8.43
2019-04-28T05:37:21.190Z,8.57
2019-04-28T05:39:52.440Z,8.61
2019-04-28T05:42:20.204Z,8.70
2019-04-28T05:44:49.655Z,8.62
2019-04-28T05:47:20.341Z,8.61
2019-04-28T05:50:13.108Z,8.68
2019-04-28T05:53:04.215Z,8.67
2019-04-28T05:55:36.095Z,9.09
2019-04-28T05:58:12.369Z,8.94
2019-04-28T06:00:45.255Z,8.79
2019-04-28T06:03:33.363Z,8.95
2019-04-28T06:06:24.951Z,8.95
2019-04-28T06:08:59.840Z,9.17
2019-04-28T06:11:46.659Z,9.08
2019-04-28T06:14:32.063Z,8.88
2019-04-28T06:17:01.528Z,9.17
2019-04-28T06:19:30.877Z,9.60
2019-04-28T06:24:52.147Z,9.43
2019-04-28T06:27:23.519Z,9.23
2019-04-28T06:29:52.012Z,9.32
2019-04-28T06:35:34.271Z,9.71
2019-04-28T06:38:02.932Z,9.34
2019-04-28T06:41:23.151Z,9.33
2019-04-28T06:43:51.639Z,9.66
2019-04-28T06:46:20.395Z,9.56
2019-04-28T06:48:49.003Z,9.86
2019-04-28T06:51:17.654Z,9.92
2019-04-28T06:53:46.167Z,10.20
2019-04-28T06:56:14.879Z,9.96
2019-04-28T06:58:43.380Z,10.37
2019-04-28T07:01:22.875Z,10.28
2019-04-28T07:04:01.203Z,10.56
2019-04-28T07:06:40.368Z,10.62
2019-04-28T07:09:18.996Z,10.56
2019-04-28T07:12:07.793Z,10.54
2019-04-28T07:14:52.988Z,10.39
2019-04-28T07:23:39.554Z,10.04
2019-04-28T07:34:03.023Z,10.20
2019-04-28T07:36:34.969Z,10.22
2019-04-28T07:43:10.635Z,10.20
2019-04-28T07:45:47.204Z,10.33
2019-04-28T07:48:44.271Z,10.34
2019-04-28T07:52:01.283Z,10.26
2019-04-28T07:54:30.363Z,10.42
2019-04-28T08:01:45.381Z,10.57
2019-04-28T08:03:48.797Z,10.52
2019-04-28T08:06:48.124Z,10.67
2019-04-28T08:09:41.293Z,10.63
2019-04-28T08:21:38.467Z,10.68
2019-04-28T08:26:48.510Z,10.59
2019-04-28T08:29:17.399Z,10.50
2019-04-28T08:31:56.513Z,10.52
2019-04-28T08:37:47.679Z,10.48
2019-04-28T08:40:16.568Z,10.28
2019-04-28T08:45:43.809Z,9.97
2019-04-28T08:48:15.767Z,10.28
2019-04-28T08:50:44.603Z,10.30
2019-04-28T08:59:47.079Z,10.33
2019-04-28T09:03:19.638Z,10.48
2019-04-28T09:09:28.748Z,10.50
2019-04-28T09:12:02.376Z,10.56
2019-04-28T09:20:08.363Z,10.73
2019-04-28T09:22:36.778Z,10.83
2019-04-28T09:25:07.135Z,10.66
2019-04-28T09:27:35.601Z,10.83
2019-04-28T09:30:05.761Z,10.78
2019-04-28T09:32:34.236Z,10.84
2019-04-28T09:35:02.749Z,10.98
2019-04-28T09:37:31.183Z,10.97
2019-04-28T09:40:01.277Z,10.99
2019-04-28T09:42:31.320Z,10.84
2019-04-28T09:45:15.895Z,11.08
2019-04-28T09:47:44.319Z,11.26
2019-04-28T09:50:12.780Z,11.98
2019-04-28T09:52:41.257Z,11.70
2019-04-28T09:55:09.821Z,11.50
2019-04-28T09:57:38.282Z,11.61
2019-04-28T10:00:08.293Z,11.63
2019-04-28T10:02:36.799Z,12.94
2019-04-28T10:05:08.844Z,12.91
2019-04-28T10:07:37.358Z,12.54
2019-04-28T10:10:08.102Z,14.49
2019-04-28T10:12:36.592Z,15.20
2019-04-28T10:15:09.036Z,15.63
2019-04-28T10:17:37.810Z,15.88
2019-04-28T10:20:07.117Z,15.55
2019-04-28T10:22:36.216Z,15.67
2019-04-28T10:25:08.109Z,15.45
2019-04-28T10:27:36.512Z,16.57
2019-04-28T10:30:09.532Z,16.87
2019-04-28T10:32:37.966Z,14.98
2019-04-28T10:35:08.407Z,16.22
2019-04-28T10:37:37.092Z,15.69
2019-04-28T10:40:14.855Z,14.36
2019-04-28T10:42:43.288Z,13.98
2019-04-28T10:45:13.598Z,15.06
2019-04-28T10:47:42.073Z,14.10
2019-04-28T10:50:11.156Z,14.83
2019-04-28T10:52:39.550Z,16.97
2019-04-28T10:55:08.467Z,15.54
2019-04-28T10:57:36.932Z,16.59
2019-04-28T11:00:08.176Z,14.78
2019-04-28T11:02:36.593Z,14.05
2019-04-28T11:05:09.042Z,13.24
2019-04-28T11:07:37.675Z,12.86
2019-04-28T11:10:15.362Z,12.74
2019-04-28T11:12:43.829Z,12.88
2019-04-28T11:15:14.005Z,12.78
2019-04-28T11:17:42.435Z,12.44
2019-04-28T11:20:11.289Z,12.61
2019-04-28T11:22:39.708Z,13.48
2019-04-28T11:25:08.365Z,15.83
2019-04-28T11:27:37.196Z,17.11
2019-04-28T11:30:08.107Z,17.88
2019-04-28T11:32:37.923Z,18.19
2019-04-28T11:35:21.765Z,17.55
2019-04-28T11:37:48.247Z,17.94
2019-04-28T11:40:16.675Z,19.77
2019-04-28T11:42:45.081Z,22.24
2019-04-28T11:45:13.660Z,22.61
2019-04-28T11:47:42.059Z,19.42
2019-04-28T11:50:10.800Z,17.64
2019-04-28T11:52:39.250Z,16.10
2019-04-28T11:55:07.643Z,15.00
2019-04-28T11:57:37.716Z,15.03
2019-04-28T12:00:08.421Z,14.82
2019-04-28T12:02:36.870Z,15.23
2019-04-28T12:05:06.374Z,14.67
2019-04-28T12:07:34.775Z,14.49
2019-04-28T12:10:07.975Z,14.33
2019-04-28T12:12:41.210Z,14.26
2019-04-28T12:15:11.404Z,14.12
2019-04-28T12:17:41.486Z,14.17
2019-04-28T12:20:11.563Z,14.28
2019-04-28T12:22:39.983Z,14.16
2019-04-28T12:25:08.486Z,13.48
2019-04-28T12:27:36.906Z,13.49
2019-04-28T12:30:06.336Z,13.08
2019-04-28T12:32:34.740Z,13.21
2019-04-28T12:35:03.173Z,13.25
2019-04-28T12:37:31.579Z,13.37
2019-04-28T12:40:00.016Z,13.50
2019-04-28T12:42:28.437Z,13.12
2019-04-28T12:44:56.871Z,13.14
2019-04-28T12:47:25.279Z,13.48
2019-04-28T12:49:55.360Z,13.47
2019-04-28T12:52:23.872Z,13.22
2019-04-28T12:54:52.282Z,13.05
2019-04-28T12:57:21.002Z,12.98
2019-04-28T12:59:53.164Z,12.83
2019-04-28T13:02:23.014Z,12.67
2019-04-28T13:04:53.078Z,12.94
2019-04-28T13:07:21.495Z,12.72
2019-04-28T13:09:50.049Z,12.67
2019-04-28T13:12:18.478Z,12.59
2019-04-28T13:14:46.978Z,12.50
2019-04-28T13:17:15.396Z,12.60
2019-04-28T13:19:43.897Z,12.62
2019-04-28T13:22:12.336Z,12.55
2019-04-28T13:24:40.841Z,12.64
2019-04-28T13:27:10.333Z,12.80
2019-04-28T13:29:38.882Z,12.82
2019-04-28T13:32:07.286Z,12.84
2019-04-28T13:34:37.420Z,13.26
2019-04-28T13:37:05.925Z,13.57
2019-04-28T13:39:36.138Z,13.44
2019-04-28T13:42:05.411Z,13.44
2019-04-28T13:44:51.750Z,13.10
2019-04-28T13:47:20.908Z,13.28
2019-04-28T13:50:07.103Z,12.87
2019-04-28T13:52:35.623Z,12.82
2019-04-28T13:55:12.195Z,12.72
2019-04-28T13:57:42.344Z,12.57
2019-04-28T14:00:12.730Z,12.52
2019-04-28T14:02:42.763Z,12.61
2019-04-28T14:05:13.315Z,12.68
2019-04-28T14:07:41.768Z,12.67
2019-04-28T14:10:10.348Z,12.64
2019-04-28T14:12:38.793Z,12.73
2019-04-28T14:15:07.353Z,12.63
2019-04-28T14:17:35.931Z,12.65
2019-04-28T14:20:06.795Z,12.64
2019-04-28T14:22:35.280Z,12.71
2019-04-28T14:25:04.915Z,12.58
2019-04-28T14:27:33.462Z,12.70
2019-04-28T14:30:01.860Z,12.73
2019-04-28T14:32:30.290Z,12.82
2019-04-28T14:34:58.819Z,12.91
2019-04-28T14:37:27.198Z,12.91
2019-04-28T14:39:55.914Z,12.86
2019-04-28T14:42:24.321Z,12.80
2019-04-28T14:44:52.758Z,12.83
2019-04-28T14:47:21.193Z,12.85
2019-04-28T14:49:49.638Z,12.88
2019-04-28T14:52:18.049Z,12.99
2019-04-28T14:54:46.494Z,12.96
2019-04-28T14:57:15.029Z,12.95
2019-04-28T14:59:43.384Z,12.96
2019-04-28T15:02:13.554Z,12.97
2019-04-28T15:04:59.669Z,12.81
2019-04-28T15:07:45.628Z,12.74
2019-04-28T15:10:32.098Z,12.97
2019-04-28T15:13:00.568Z,13.09
2019-04-28T15:15:29.106Z,13.21
2019-04-28T15:17:57.570Z,13.17
2019-04-28T15:20:26.035Z,13.19
2019-04-28T15:22:54.417Z,13.14
2019-04-28T15:25:22.826Z,13.15
2019-04-28T15:27:51.236Z,13.06
2019-04-28T15:30:19.674Z,12.99
2019-04-28T15:32:48.266Z,13.00
2019-04-28T15:35:16.784Z,13.07
2019-04-28T15:37:45.250Z,13.14
2019-04-28T15:40:13.642Z,13.10
2019-04-28T15:42:42.082Z,13.14
2019-04-28T15:45:10.920Z,13.06
2019-04-28T15:47:39.357Z,13.03
2019-04-28T15:50:07.988Z,13.05
2019-04-28T15:52:36.422Z,13.13
2019-04-28T15:55:08.302Z,13.27
2019-04-28T15:57:36.888Z,13.18
2019-04-28T16:00:08.783Z,13.13
2019-04-28T16:02:37.256Z,13.09
2019-04-28T16:05:07.578Z,12.97
2019-04-28T16:07:36.034Z,12.80
2019-04-28T16:10:06.892Z,12.81
2019-04-28T16:12:35.372Z,12.81
2019-04-28T16:15:07.378Z,12.70
2019-04-28T16:17:35.451Z,12.74
2019-04-28T16:20:06.323Z,12.85
2019-04-28T16:22:34.784Z,12.75
2019-04-28T16:25:04.294Z,12.89
2019-04-28T16:27:32.710Z,12.95
2019-04-28T16:30:01.128Z,12.99
2019-04-28T16:32:29.558Z,12.85
2019-04-28T16:34:57.983Z,12.80
2019-04-28T16:37:38.230Z,12.53
2019-04-28T16:39:56.823Z,12.56
2019-04-28T16:42:27.123Z,12.48
2019-04-28T16:44:58.836Z,12.47
2019-04-28T16:47:27.230Z,12.46
2019-04-28T16:49:55.757Z,12.40
2019-04-28T16:52:24.206Z,12.24
2019-04-28T16:54:54.255Z,12.19
2019-04-28T16:57:27.232Z,12.26
2019-04-28T16:59:57.297Z,12.36
2019-04-28T17:02:30.598Z,12.24
2019-04-28T17:04:59.040Z,12.28
2019-04-28T17:07:27.540Z,12.28
2019-04-28T17:09:55.942Z,12.20
2019-04-28T17:12:24.384Z,12.19
2019-04-28T17:14:52.814Z,12.15
2019-04-28T17:17:21.221Z,12.14
2019-04-28T17:19:49.724Z,12.11
2019-04-28T17:22:19.488Z,12.06
2019-04-28T17:24:48.113Z,12.04
2019-04-28T17:27:16.759Z,12.01
2019-04-28T17:29:45.306Z,11.97
2019-04-28T17:32:13.787Z,12.01
2019-04-28T17:34:42.193Z,11.92
2019-04-28T17:37:11.392Z,11.90
2019-04-28T17:39:39.798Z,11.99
2019-04-28T17:42:09.129Z,11.97
2019-04-28T17:44:37.534Z,11.97
2019-04-28T17:47:05.962Z,11.82
2019-04-28T17:49:36.082Z,11.89
2019-04-28T17:52:05.712Z,11.90
2019-04-28T17:54:34.538Z,11.81
2019-04-28T17:57:03.809Z,11.73
2019-04-28T17:59:32.239Z,11.84
2019-04-28T18:02:18.266Z,11.81
2019-04-28T18:04:51.030Z,11.70
2019-04-28T18:07:21.096Z,11.79
2019-04-28T18:09:49.595Z,11.64
2019-04-28T18:12:18.081Z,11.74
2019-04-28T18:14:48.223Z,11.73
2019-04-28T18:17:18.412Z,11.72
2019-04-28T18:19:46.796Z,11.61
2019-04-28T18:22:15.314Z,11.45
2019-04-28T18:24:43.890Z,11.40
2019-04-28T18:27:12.282Z,11.51
2019-04-28T18:29:40.680Z,11.49
2019-04-28T18:32:25.738Z,11.55
2019-04-28T18:34:58.901Z,11.32
2019-04-28T18:37:38.490Z,11.26
2019-04-28T18:40:21.538Z,11.24
2019-04-28T18:42:51.636Z,11.31
2019-04-28T18:45:20.093Z,11.29
2019-04-28T18:47:48.492Z,11.09
2019-04-28T18:50:17.049Z,11.11
2019-04-28T18:52:45.473Z,11.08
2019-04-28T18:55:14.136Z,10.96
2019-04-28T18:57:42.591Z,11.00
2019-04-28T19:00:11.410Z,11.17
2019-04-28T19:02:41.539Z,11.00
2019-04-28T19:05:10.593Z,10.89
2019-04-28T19:07:43.257Z,10.85
2019-04-28T19:10:13.451Z,10.80
2019-04-28T19:12:43.516Z,10.85
2019-04-28T19:15:29.831Z,10.90
2019-04-28T19:18:02.641Z,10.96
2019-04-28T19:20:31.047Z,11.00
2019-04-28T19:22:59.506Z,11.00
2019-04-28T19:25:27.923Z,10.92
2019-04-28T19:27:56.342Z,10.86
2019-04-28T19:30:24.902Z,10.89
2019-04-28T19:32:53.306Z,10.82
2019-04-28T19:35:21.737Z,10.77
2019-04-28T19:37:50.174Z,10.77
2019-04-28T19:40:18.594Z,10.77
2019-04-28T19:42:47.013Z,10.60
2019-04-28T19:45:17.478Z,10.56
2019-04-28T19:47:45.968Z,10.72
2019-04-28T19:50:14.591Z,10.78
2019-04-28T19:52:43.085Z,10.78
2019-04-28T19:55:16.866Z,10.70
2019-04-28T19:57:46.954Z,10.67
2019-04-28T20:00:23.516Z,10.65
2019-04-28T20:02:52.000Z,10.76
2019-04-28T20:05:20.431Z,10.74
2019-04-28T20:07:48.864Z,10.72
2019-04-28T20:10:17.299Z,10.77
2019-04-28T20:12:45.786Z,10.70
2019-04-28T20:15:14.351Z,10.63
2019-04-28T20:17:42.772Z,10.62
2019-04-28T20:20:11.560Z,10.54
2019-04-28T20:22:41.517Z,10.50
2019-04-28T20:25:10.897Z,10.49
2019-04-28T20:27:39.302Z,10.45
2019-04-28T20:30:08.687Z,10.50
2019-04-28T20:32:44.928Z,10.42
2019-04-28T20:35:16.103Z,10.83
2019-04-28T20:37:49.401Z,10.59
2019-04-28T20:40:19.483Z,10.43
2019-04-28T20:42:58.308Z,10.49
2019-04-28T20:45:26.814Z,10.47
2019-04-28T20:47:55.210Z,10.44
2019-04-28T20:50:23.639Z,10.24
2019-04-28T20:52:52.100Z,10.10
2019-04-28T20:55:20.506Z,10.07
2019-04-28T20:57:48.989Z,10.06
2019-04-28T21:00:17.469Z,10.36
2019-04-28T21:02:45.923Z,10.28
2019-04-28T21:05:14.490Z,10.04
2019-04-28T21:07:42.921Z,10.15
2019-04-28T21:10:11.667Z,10.21
2019-04-28T21:12:40.088Z,10.09
2019-04-28T21:15:09.349Z,10.01
2019-04-28T21:17:37.985Z,10.13
2019-04-28T21:20:07.363Z,10.14
2019-04-28T21:22:35.748Z,9.99
2019-04-28T21:25:06.057Z,10.09
2019-04-28T21:27:34.490Z,10.06
2019-04-28T21:30:02.909Z,9.99
2019-04-28T21:32:31.330Z,9.95
2019-04-28T21:34:59.731Z,9.88
2019-04-28T21:37:28.154Z,9.90
2019-04-28T21:39:56.573Z,9.76
2019-04-28T21:42:26.642Z,9.84
2019-04-28T21:45:12.859Z,9.71
2019-04-28T21:47:41.750Z,9.71
2019-04-28T21:50:10.241Z,9.80
2019-04-28T21:52:38.657Z,9.57
2019-04-28T21:55:07.649Z,9.44
2019-04-28T21:57:36.133Z,9.73
2019-04-28T22:00:09.476Z,9.49
2019-04-28T22:02:37.911Z,9.36
2019-04-28T22:05:07.373Z,9.46
2019-04-28T22:07:35.780Z,9.37
2019-04-28T22:10:06.428Z,9.24
2019-04-28T22:12:34.850Z,9.34
2019-04-28T22:15:03.329Z,9.33
2019-04-28T22:17:31.745Z,9.41
2019-04-28T22:20:00.151Z,9.14
2019-04-28T22:22:28.753Z,9.21
2019-04-28T22:24:58.806Z,9.19
2019-04-28T22:27:28.954Z,9.24
2019-04-28T22:29:57.343Z,9.33
2019-04-28T22:32:25.733Z,9.24
2019-04-28T22:34:54.167Z,9.08
2019-04-28T22:37:22.577Z,9.26
2019-04-28T22:39:50.973Z,8.90
2019-04-28T22:42:19.411Z,9.05
2019-04-28T22:44:47.831Z,9.05
2019-04-28T22:47:16.221Z,9.05
2019-04-28T22:49:44.623Z,8.99
2019-04-28T22:52:13.059Z,8.96
2019-04-28T22:54:43.127Z,9.03
2019-04-28T22:57:15.881Z,8.93
2019-04-28T22:59:48.823Z,8.98
2019-04-28T23:02:18.864Z,8.96
2019-04-28T23:04:58.065Z,8.86
2019-04-28T23:07:26.467Z,8.90
2019-04-28T23:09:55.061Z,8.96
2019-04-28T23:12:23.465Z,8.71
2019-04-28T23:14:51.904Z,8.73
2019-04-28T23:17:20.583Z,9.01
2019-04-28T23:19:49.152Z,8.90
2019-04-28T23:22:30.884Z,9.00
2019-04-28T23:24:59.270Z,8.77
2019-04-28T23:27:27.662Z,8.92
2019-04-28T23:29:56.080Z,8.67
2019-04-28T23:32:24.485Z,8.90
2019-04-28T23:34:52.922Z,8.74
2019-04-28T23:37:21.300Z,8.66
2019-04-28T23:39:49.931Z,8.66
2019-04-28T23:42:20.030Z,8.51
2019-04-28T23:44:48.412Z,8.51
2019-04-28T23:47:16.896Z,8.63
2019-04-28T23:49:45.326Z,8.53
2019-04-28T23:52:21.391Z,8.51
2019-04-28T23:54:51.418Z,8.52
2019-04-28T23:57:19.843Z,8.49
2019-04-28T23:59:48.263Z,8.41
